sensor_id;sensor_type;location;lat;lon;timestamp;pressure;altitude;pressure_sealevel;temperature;humidity
12536;BME280;6334;48.696;2.114;2023-05-02T00:00:09;100502.11;;;11.93;72.79
12536;BME280;6334;48.696;2.114;2023-05-02T00:02:40;100505.61;;;11.43;74.50
12536;BME280;6334;48.696;2.114;2023-05-02T00:05:10;100502.61;;;11.82;73.89
12536;BME280;6334;48.696;2.114;2023-05-02T00:07:41;100506.00;;;11.77;73.18
12536;BME280;6334;48.696;2.114;2023-05-02T00:10:11;100507.13;;;11.82;72.81
12536;BME280;6334;48.696;2.114;2023-05-02T00:12:42;100511.90;;;11.90;72.90
12536;BME280;6334;48.696;2.114;2023-05-02T00:15:12;100510.22;;;11.80;72.87
12536;BME280;6334;48.696;2.114;2023-05-02T00:17:43;100498.02;;;12.01;72.15
12536;BME280;6334;48.696;2.114;2023-05-02T00:20:13;100509.02;;;11.66;73.39
12536;BME280;6334;48.696;2.114;2023-05-02T00:22:44;100510.30;;;12.23;72.62
12536;BME280;6334;48.696;2.114;2023-05-02T00:25:14;100505.57;;;11.97;72.04
12536;BME280;6334;48.696;2.114;2023-05-02T00:27:46;100501.14;;;11.51;74.61
12536;BME280;6334;48.696;2.114;2023-05-02T00:30:16;100500.25;;;11.84;73.99
12536;BME280;6334;48.696;2.114;2023-05-02T00:32:47;100500.56;;;11.88;73.34
12536;BME280;6334;48.696;2.114;2023-05-02T00:35:17;100497.79;;;12.00;72.50
12536;BME280;6334;48.696;2.114;2023-05-02T00:37:48;100493.59;;;11.77;73.31
12536;BME280;6334;48.696;2.114;2023-05-02T00:40:18;100501.05;;;11.99;73.03
12536;BME280;6334;48.696;2.114;2023-05-02T00:42:49;100499.79;;;11.64;74.00
12536;BME280;6334;48.696;2.114;2023-05-02T00:45:19;100494.06;;;11.61;74.05
12536;BME280;6334;48.696;2.114;2023-05-02T00:47:50;100491.48;;;11.76;74.04
12536;BME280;6334;48.696;2.114;2023-05-02T00:50:20;100492.62;;;11.60;73.93
12536;BME280;6334;48.696;2.114;2023-05-02T00:52:51;100492.72;;;11.09;75.65
12536;BME280;6334;48.696;2.114;2023-05-02T00:55:21;100493.20;;;11.44;74.54
12536;BME280;6334;48.696;2.114;2023-05-02T00:57:51;100492.33;;;11.04;76.67
12536;BME280;6334;48.696;2.114;2023-05-02T01:00:23;100499.86;;;11.43;74.77
12536;BME280;6334;48.696;2.114;2023-05-02T01:02:56;100502.02;;;11.65;75.07
12536;BME280;6334;48.696;2.114;2023-05-02T01:05:32;100502.36;;;11.82;74.29
12536;BME280;6334;48.696;2.114;2023-05-02T01:08:24;100505.95;;;11.80;72.71
12536;BME280;6334;48.696;2.114;2023-05-02T01:10:58;100506.13;;;11.72;73.50
12536;BME280;6334;48.696;2.114;2023-05-02T01:13:27;100512.74;;;11.25;74.87
12536;BME280;6334;48.696;2.114;2023-05-02T01:15:56;100514.30;;;11.70;73.87
12536;BME280;6334;48.696;2.114;2023-05-02T01:18:27;100509.71;;;11.73;73.35
12536;BME280;6334;48.696;2.114;2023-05-02T01:21:00;100504.23;;;11.87;73.49
12536;BME280;6334;48.696;2.114;2023-05-02T01:26:12;100506.26;;;11.77;74.34
12536;BME280;6334;48.696;2.114;2023-05-02T01:28:58;100508.13;;;11.43;74.92
12536;BME280;6334;48.696;2.114;2023-05-02T01:31:24;100503.68;;;11.25;76.18
12536;BME280;6334;48.696;2.114;2023-05-02T01:33:54;100458.83;;;10.97;76.22
12536;BME280;6334;48.696;2.114;2023-05-02T01:36:25;100499.87;;;11.52;74.61
12536;BME280;6334;48.696;2.114;2023-05-02T01:38:57;100497.97;;;11.70;74.54
12536;BME280;6334;48.696;2.114;2023-05-02T01:41:29;100496.54;;;11.53;74.21
12536;BME280;6334;48.696;2.114;2023-05-02T01:43:58;100497.17;;;11.25;76.01
12536;BME280;6334;48.696;2.114;2023-05-02T01:46:32;100492.62;;;11.72;73.27
12536;BME280;6334;48.696;2.114;2023-05-02T01:49:04;100495.36;;;11.56;73.95
12536;BME280;6334;48.696;2.114;2023-05-02T01:51:39;100458.59;;;11.27;73.94
12536;BME280;6334;48.696;2.114;2023-05-02T01:54:07;100501.91;;;11.17;75.30
12536;BME280;6334;48.696;2.114;2023-05-02T01:56:38;100496.75;;;11.02;75.63
12536;BME280;6334;48.696;2.114;2023-05-02T01:59:10;100500.97;;;11.19;75.16
12536;BME280;6334;48.696;2.114;2023-05-02T02:01:39;100497.83;;;11.14;75.49
12536;BME280;6334;48.696;2.114;2023-05-02T02:04:10;100501.27;;;10.96;75.89
12536;BME280;6334;48.696;2.114;2023-05-02T02:06:40;100494.31;;;11.50;75.06
12536;BME280;6334;48.696;2.114;2023-05-02T02:09:10;100497.58;;;11.67;73.57
12536;BME280;6334;48.696;2.114;2023-05-02T02:11:45;100498.97;;;11.29;74.36
12536;BME280;6334;48.696;2.114;2023-05-02T02:14:24;100501.61;;;11.34;74.21
12536;BME280;6334;48.696;2.114;2023-05-02T02:16:44;100488.37;;;11.07;75.31
12536;BME280;6334;48.696;2.114;2023-05-02T02:19:15;100509.69;;;11.34;75.10
12536;BME280;6334;48.696;2.114;2023-05-02T02:21:46;100505.20;;;11.09;74.87
12536;BME280;6334;48.696;2.114;2023-05-02T02:24:16;100510.63;;;11.05;75.46
12536;BME280;6334;48.696;2.114;2023-05-02T02:26:46;100513.21;;;11.03;75.98
12536;BME280;6334;48.696;2.114;2023-05-02T02:29:17;100510.81;;;10.89;76.06
12536;BME280;6334;48.696;2.114;2023-05-02T02:31:47;100513.45;;;10.76;76.08
12536;BME280;6334;48.696;2.114;2023-05-02T02:34:18;100512.55;;;10.59;76.78
12536;BME280;6334;48.696;2.114;2023-05-02T02:37:01;100511.52;;;10.85;75.82
12536;BME280;6334;48.696;2.114;2023-05-02T02:42:08;100513.69;;;10.65;76.29
12536;BME280;6334;48.696;2.114;2023-05-02T02:47:26;100512.53;;;11.09;75.04
12536;BME280;6334;48.696;2.114;2023-05-02T02:50:08;100469.05;;;11.09;74.54
12536;BME280;6334;48.696;2.114;2023-05-02T02:55:25;100514.80;;;11.53;72.97
12536;BME280;6334;48.696;2.114;2023-05-02T03:00:47;100516.73;;;11.04;75.48
12536;BME280;6334;48.696;2.114;2023-05-02T03:03:17;100517.75;;;11.35;73.42
12536;BME280;6334;48.696;2.114;2023-05-02T03:05:48;100515.31;;;11.26;73.31
12536;BME280;6334;48.696;2.114;2023-05-02T03:08:18;100512.90;;;11.17;73.46
12536;BME280;6334;48.696;2.114;2023-05-02T03:10:49;100513.06;;;11.16;73.20
12536;BME280;6334;48.696;2.114;2023-05-02T03:13:19;100512.92;;;11.23;72.80
12536;BME280;6334;48.696;2.114;2023-05-02T03:18:23;100505.39;;;10.91;73.22
12536;BME280;6334;48.696;2.114;2023-05-02T03:20:53;100523.41;;;10.45;74.77
12536;BME280;6334;48.696;2.114;2023-05-02T03:23:24;100519.72;;;11.01;73.24
12536;BME280;6334;48.696;2.114;2023-05-02T03:25:54;100525.41;;;11.12;72.76
12536;BME280;6334;48.696;2.114;2023-05-02T03:28:25;100527.91;;;11.12;72.66
12536;BME280;6334;48.696;2.114;2023-05-02T03:30:55;100526.78;;;11.08;73.00
12536;BME280;6334;48.696;2.114;2023-05-02T03:33:26;100531.07;;;11.15;72.48
12536;BME280;6334;48.696;2.114;2023-05-02T03:35:56;100531.50;;;11.10;73.41
12536;BME280;6334;48.696;2.114;2023-05-02T03:38:28;100532.16;;;11.14;72.95
12536;BME280;6334;48.696;2.114;2023-05-02T03:40:57;100534.75;;;10.98;73.83
12536;BME280;6334;48.696;2.114;2023-05-02T03:43:27;100528.09;;;11.22;73.74
12536;BME280;6334;48.696;2.114;2023-05-02T03:46:03;100529.08;;;11.23;74.03
12536;BME280;6334;48.696;2.114;2023-05-02T03:48:28;100530.19;;;11.23;72.56
12536;BME280;6334;48.696;2.114;2023-05-02T03:51:00;100532.93;;;10.78;73.97
12536;BME280;6334;48.696;2.114;2023-05-02T03:53:29;100538.26;;;10.96;73.64
12536;BME280;6334;48.696;2.114;2023-05-02T03:56:00;100541.85;;;11.05;72.93
12536;BME280;6334;48.696;2.114;2023-05-02T03:58:30;100538.39;;;10.68;73.75
12536;BME280;6334;48.696;2.114;2023-05-02T04:01:01;100539.80;;;11.01;72.83
12536;BME280;6334;48.696;2.114;2023-05-02T04:03:31;100529.48;;;10.67;73.50
12536;BME280;6334;48.696;2.114;2023-05-02T04:06:02;100534.24;;;10.94;72.97
12536;BME280;6334;48.696;2.114;2023-05-02T04:08:32;100543.16;;;10.98;73.25
12536;BME280;6334;48.696;2.114;2023-05-02T04:11:02;100547.31;;;11.11;73.19
12536;BME280;6334;48.696;2.114;2023-05-02T04:13:33;100546.09;;;10.90;73.91
12536;BME280;6334;48.696;2.114;2023-05-02T04:16:03;100547.95;;;10.28;75.73
12536;BME280;6334;48.696;2.114;2023-05-02T04:18:34;100551.79;;;10.62;75.35
12536;BME280;6334;48.696;2.114;2023-05-02T04:21:06;100554.66;;;10.00;76.81
12536;BME280;6334;48.696;2.114;2023-05-02T04:23:38;100558.58;;;10.45;75.15
12536;BME280;6334;48.696;2.114;2023-05-02T04:26:08;100556.63;;;10.15;76.16
12536;BME280;6334;48.696;2.114;2023-05-02T04:28:39;100557.30;;;10.61;75.30
12536;BME280;6334;48.696;2.114;2023-05-02T04:31:09;100560.13;;;10.79;74.45
12536;BME280;6334;48.696;2.114;2023-05-02T04:33:40;100562.31;;;10.92;74.48
12536;BME280;6334;48.696;2.114;2023-05-02T04:36:10;100561.93;;;10.64;74.48
12536;BME280;6334;48.696;2.114;2023-05-02T04:38:41;100567.02;;;10.65;74.33
12536;BME280;6334;48.696;2.114;2023-05-02T04:41:11;100578.23;;;10.41;74.79
12536;BME280;6334;48.696;2.114;2023-05-02T04:43:41;100534.53;;;10.74;73.91
12536;BME280;6334;48.696;2.114;2023-05-02T04:46:12;100583.66;;;10.89;73.91
12536;BME280;6334;48.696;2.114;2023-05-02T04:48:42;100582.09;;;10.87;74.36
12536;BME280;6334;48.696;2.114;2023-05-02T04:51:13;100575.74;;;11.05;73.85
12536;BME280;6334;48.696;2.114;2023-05-02T04:53:43;100575.44;;;10.97;73.36
12536;BME280;6334;48.696;2.114;2023-05-02T04:56:14;100572.87;;;10.97;74.14
12536;BME280;6334;48.696;2.114;2023-05-02T04:58:44;100578.41;;;10.69;74.37
12536;BME280;6334;48.696;2.114;2023-05-02T05:01:16;100575.62;;;10.98;73.25
12536;BME280;6334;48.696;2.114;2023-05-02T05:03:46;100587.88;;;10.92;74.16
12536;BME280;6334;48.696;2.114;2023-05-02T05:06:17;100588.58;;;11.06;73.81
12536;BME280;6334;48.696;2.114;2023-05-02T05:08:47;100594.91;;;10.87;74.14
12536;BME280;6334;48.696;2.114;2023-05-02T05:11:17;100597.05;;;10.91;73.92
12536;BME280;6334;48.696;2.114;2023-05-02T05:13:48;100598.41;;;10.87;74.38
12536;BME280;6334;48.696;2.114;2023-05-02T05:16:18;100600.88;;;11.08;73.02
12536;BME280;6334;48.696;2.114;2023-05-02T05:18:49;100609.38;;;10.83;73.92
12536;BME280;6334;48.696;2.114;2023-05-02T05:21:19;100606.05;;;11.06;73.65
12536;BME280;6334;48.696;2.114;2023-05-02T05:23:50;100611.38;;;11.03;73.63
12536;BME280;6334;48.696;2.114;2023-05-02T05:26:20;100619.00;;;10.47;75.22
12536;BME280;6334;48.696;2.114;2023-05-02T05:28:51;100621.46;;;10.56;75.69
12536;BME280;6334;48.696;2.114;2023-05-02T05:31:21;100626.16;;;10.95;74.43
12536;BME280;6334;48.696;2.114;2023-05-02T05:33:52;100627.87;;;10.52;75.01
12536;BME280;6334;48.696;2.114;2023-05-02T05:36:22;100634.34;;;10.88;74.80
12536;BME280;6334;48.696;2.114;2023-05-02T05:38:53;100636.00;;;10.86;74.96
12536;BME280;6334;48.696;2.114;2023-05-02T05:41:23;100595.57;;;10.87;73.84
12536;BME280;6334;48.696;2.114;2023-05-02T05:43:53;100637.69;;;10.52;75.47
12536;BME280;6334;48.696;2.114;2023-05-02T05:46:26;100646.34;;;11.08;73.86
12536;BME280;6334;48.696;2.114;2023-05-02T05:48:57;100642.36;;;10.15;76.98
12536;BME280;6334;48.696;2.114;2023-05-02T05:51:27;100645.11;;;10.16;77.19
12536;BME280;6334;48.696;2.114;2023-05-02T05:53:58;100648.92;;;10.29;76.49
12536;BME280;6334;48.696;2.114;2023-05-02T05:56:28;100649.59;;;10.46;76.23
12536;BME280;6334;48.696;2.114;2023-05-02T05:58:59;100658.17;;;10.85;74.60
12536;BME280;6334;48.696;2.114;2023-05-02T06:01:29;100660.17;;;11.08;74.07
12536;BME280;6334;48.696;2.114;2023-05-02T06:04:00;100658.72;;;10.96;74.74
12536;BME280;6334;48.696;2.114;2023-05-02T06:06:30;100658.41;;;11.07;74.62
12536;BME280;6334;48.696;2.114;2023-05-02T06:09:01;100661.86;;;11.21;73.75
12536;BME280;6334;48.696;2.114;2023-05-02T06:11:31;100664.95;;;10.65;75.74
12536;BME280;6334;48.696;2.114;2023-05-02T06:14:02;100668.20;;;10.62;76.49
12536;BME280;6334;48.696;2.114;2023-05-02T06:16:32;100676.09;;;10.98;75.28
12536;BME280;6334;48.696;2.114;2023-05-02T06:19:02;100679.22;;;11.09;75.52
12536;BME280;6334;48.696;2.114;2023-05-02T06:21:35;100685.05;;;11.17;75.52
12536;BME280;6334;48.696;2.114;2023-05-02T06:24:03;100686.62;;;11.34;75.09
12536;BME280;6334;48.696;2.114;2023-05-02T06:26:35;100682.69;;;11.40;73.88
12536;BME280;6334;48.696;2.114;2023-05-02T06:29:06;100693.84;;;11.38;74.44
12536;BME280;6334;48.696;2.114;2023-05-02T06:31:35;100692.86;;;11.53;73.79
12536;BME280;6334;48.696;2.114;2023-05-02T06:34:05;100687.59;;;11.37;74.59
12536;BME280;6334;48.696;2.114;2023-05-02T06:36:36;100686.57;;;11.00;76.92
12536;BME280;6334;48.696;2.114;2023-05-02T06:39:06;100691.41;;;11.57;74.11
12536;BME280;6334;48.696;2.114;2023-05-02T06:41:37;100700.90;;;11.27;76.25
12536;BME280;6334;48.696;2.114;2023-05-02T06:44:07;100700.66;;;10.94;77.09
12536;BME280;6334;48.696;2.114;2023-05-02T06:46:38;100697.63;;;11.29;76.33
12536;BME280;6334;48.696;2.114;2023-05-02T06:49:08;100704.77;;;11.35;75.29
12536;BME280;6334;48.696;2.114;2023-05-02T06:51:39;100708.17;;;11.16;77.51
12536;BME280;6334;48.696;2.114;2023-05-02T06:54:09;100708.47;;;11.61;75.21
12536;BME280;6334;48.696;2.114;2023-05-02T06:56:40;100712.45;;;11.34;77.15
12536;BME280;6334;48.696;2.114;2023-05-02T06:59:10;100707.39;;;11.89;74.64
12536;BME280;6334;48.696;2.114;2023-05-02T07:01:41;100710.16;;;12.03;74.54
12536;BME280;6334;48.696;2.114;2023-05-02T07:04:11;100713.22;;;12.09;74.50
12536;BME280;6334;48.696;2.114;2023-05-02T07:06:41;100711.58;;;12.14;74.26
12536;BME280;6334;48.696;2.114;2023-05-02T07:09:12;100708.24;;;11.57;76.44
12536;BME280;6334;48.696;2.114;2023-05-02T07:11:42;100711.70;;;12.10;74.53
12536;BME280;6334;48.696;2.114;2023-05-02T07:14:13;100707.30;;;11.48;77.56
12536;BME280;6334;48.696;2.114;2023-05-02T07:16:44;100709.80;;;11.81;75.72
12536;BME280;6334;48.696;2.114;2023-05-02T07:19:14;100709.58;;;11.88;75.74
12536;BME280;6334;48.696;2.114;2023-05-02T07:21:43;100712.47;;;11.96;76.38
12536;BME280;6334;48.696;2.114;2023-05-02T07:26:49;100707.81;;;12.36;75.83
12536;BME280;6334;48.696;2.114;2023-05-02T07:29:19;100717.68;;;12.63;75.34
12536;BME280;6334;48.696;2.114;2023-05-02T07:31:49;100719.11;;;12.88;73.55
12536;BME280;6334;48.696;2.114;2023-05-02T07:36:56;100726.88;;;12.97;73.79
12536;BME280;6334;48.696;2.114;2023-05-02T07:39:25;100729.50;;;13.45;73.05
12536;BME280;6334;48.696;2.114;2023-05-02T07:47:38;100722.83;;;13.52;71.14
12536;BME280;6334;48.696;2.114;2023-05-02T07:54:50;100730.34;;;13.77;70.80
12536;BME280;6334;48.696;2.114;2023-05-02T07:57:20;100732.17;;;13.83;70.56
12536;BME280;6334;48.696;2.114;2023-05-02T07:59:50;100701.02;;;13.68;69.98
12536;BME280;6334;48.696;2.114;2023-05-02T08:02:20;100727.27;;;14.32;69.01
12536;BME280;6334;48.696;2.114;2023-05-02T08:04:51;100722.63;;;13.96;69.74
12536;BME280;6334;48.696;2.114;2023-05-02T08:07:21;100727.38;;;14.09;70.30
12536;BME280;6334;48.696;2.114;2023-05-02T08:09:52;100728.00;;;14.52;68.62
12536;BME280;6334;48.696;2.114;2023-05-02T08:12:22;100730.68;;;14.87;67.43
12536;BME280;6334;48.696;2.114;2023-05-02T08:14:53;100731.30;;;14.76;67.97
12536;BME280;6334;48.696;2.114;2023-05-02T08:17:23;100729.59;;;14.70;68.25
12536;BME280;6334;48.696;2.114;2023-05-02T08:19:53;100726.61;;;14.57;67.68
12536;BME280;6334;48.696;2.114;2023-05-02T08:22:24;100726.91;;;14.73;68.09
12536;BME280;6334;48.696;2.114;2023-05-02T08:24:54;100728.62;;;14.76;67.22
12536;BME280;6334;48.696;2.114;2023-05-02T08:27:25;100729.27;;;14.95;67.35
12536;BME280;6334;48.696;2.114;2023-05-02T08:29:55;100723.44;;;14.46;67.45
12536;BME280;6334;48.696;2.114;2023-05-02T08:32:26;100737.08;;;15.54;66.42
12536;BME280;6334;48.696;2.114;2023-05-02T08:34:56;100740.21;;;15.11;68.39
12536;BME280;6334;48.696;2.114;2023-05-02T08:37:27;100738.94;;;15.54;67.07
12536;BME280;6334;48.696;2.114;2023-05-02T08:39:58;100749.22;;;15.55;66.17
12536;BME280;6334;48.696;2.114;2023-05-02T08:42:28;100750.53;;;15.24;67.24
12536;BME280;6334;48.696;2.114;2023-05-02T08:44:58;100751.95;;;15.02;67.72
12536;BME280;6334;48.696;2.114;2023-05-02T08:47:29;100753.41;;;15.25;67.49
12536;BME280;6334;48.696;2.114;2023-05-02T08:49:59;100757.34;;;15.71;67.74
12536;BME280;6334;48.696;2.114;2023-05-02T08:52:30;100729.83;;;15.35;66.80
12536;BME280;6334;48.696;2.114;2023-05-02T08:55:00;100761.49;;;15.61;67.25
12536;BME280;6334;48.696;2.114;2023-05-02T08:57:30;100758.53;;;15.88;65.34
12536;BME280;6334;48.696;2.114;2023-05-02T09:00:01;100761.09;;;15.86;65.32
12536;BME280;6334;48.696;2.114;2023-05-02T09:05:28;100760.33;;;15.49;68.07
12536;BME280;6334;48.696;2.114;2023-05-02T09:07:58;100765.63;;;15.86;65.01
12536;BME280;6334;48.696;2.114;2023-05-02T09:10:29;100757.93;;;16.29;64.08
12536;BME280;6334;48.696;2.114;2023-05-02T09:13:26;100765.09;;;16.44;64.36
12536;BME280;6334;48.696;2.114;2023-05-02T09:15:30;100762.35;;;15.48;66.08
12536;BME280;6334;48.696;2.114;2023-05-02T09:18:00;100762.28;;;16.18;63.52
12536;BME280;6334;48.696;2.114;2023-05-02T09:20:30;100768.33;;;15.67;64.54
12536;BME280;6334;48.696;2.114;2023-05-02T09:23:01;100766.06;;;15.32;65.99
12536;BME280;6334;48.696;2.114;2023-05-02T09:25:34;100765.70;;;15.49;65.51
12536;BME280;6334;48.696;2.114;2023-05-02T09:28:05;100768.64;;;15.45;66.60
12536;BME280;6334;48.696;2.114;2023-05-02T09:30:35;100767.78;;;15.42;66.85
12536;BME280;6334;48.696;2.114;2023-05-02T09:33:07;100773.77;;;15.32;67.88
12536;BME280;6334;48.696;2.114;2023-05-02T09:35:40;100770.79;;;15.62;64.99
12536;BME280;6334;48.696;2.114;2023-05-02T09:38:17;100774.70;;;16.11;63.23
12536;BME280;6334;48.696;2.114;2023-05-02T09:40:37;100768.64;;;16.12;63.82
12536;BME280;6334;48.696;2.114;2023-05-02T09:43:14;100771.97;;;16.06;62.54
12536;BME280;6334;48.696;2.114;2023-05-02T09:45:54;100770.19;;;16.14;59.25
12536;BME280;6334;48.696;2.114;2023-05-02T09:48:15;100777.05;;;16.09;58.75
12536;BME280;6334;48.696;2.114;2023-05-02T09:50:45;100739.93;;;15.97;59.67
12536;BME280;6334;48.696;2.114;2023-05-02T09:53:16;100776.55;;;16.26;57.86
12536;BME280;6334;48.696;2.114;2023-05-02T09:55:46;100769.51;;;16.03;58.35
12536;BME280;6334;48.696;2.114;2023-05-02T09:58:23;100775.95;;;16.54;59.42
12536;BME280;6334;48.696;2.114;2023-05-02T10:00:53;100776.97;;;16.74;59.71
12536;BME280;6334;48.696;2.114;2023-05-02T10:03:24;100776.75;;;16.97;57.61
12536;BME280;6334;48.696;2.114;2023-05-02T10:05:54;100776.80;;;17.10;57.60
12536;BME280;6334;48.696;2.114;2023-05-02T10:08:25;100770.97;;;17.26;58.40
12536;BME280;6334;48.696;2.114;2023-05-02T10:10:55;100766.61;;;17.73;58.66
12536;BME280;6334;48.696;2.114;2023-05-02T10:13:26;100769.02;;;17.45;57.73
12536;BME280;6334;48.696;2.114;2023-05-02T10:15:59;100774.38;;;16.91;60.22
12536;BME280;6334;48.696;2.114;2023-05-02T10:18:27;100771.26;;;17.19;59.08
12536;BME280;6334;48.696;2.114;2023-05-02T10:21:01;100734.36;;;17.15;59.73
12536;BME280;6334;48.696;2.114;2023-05-02T10:23:30;100773.16;;;17.12;60.42
12536;BME280;6334;48.696;2.114;2023-05-02T10:26:00;100770.05;;;16.93;58.33
12536;BME280;6334;48.696;2.114;2023-05-02T10:28:31;100768.73;;;16.77;58.54
12536;BME280;6334;48.696;2.114;2023-05-02T10:31:01;100772.42;;;16.54;62.12
12536;BME280;6334;48.696;2.114;2023-05-02T10:33:32;100780.58;;;16.32;60.95
12536;BME280;6334;48.696;2.114;2023-05-02T10:36:02;100780.22;;;16.20;61.40
12536;BME280;6334;48.696;2.114;2023-05-02T10:38:33;100787.42;;;16.20;60.89
12536;BME280;6334;48.696;2.114;2023-05-02T10:41:13;100787.47;;;16.03;62.81
12536;BME280;6334;48.696;2.114;2023-05-02T10:43:46;100790.31;;;16.58;61.97
12536;BME280;6334;48.696;2.114;2023-05-02T10:46:37;100784.06;;;16.42;61.93
12536;BME280;6334;48.696;2.114;2023-05-02T10:49:07;100783.31;;;16.30;62.33
12536;BME280;6334;48.696;2.114;2023-05-02T10:51:38;100786.14;;;16.66;63.15
12536;BME280;6334;48.696;2.114;2023-05-02T10:54:19;100782.42;;;16.77;60.67
12536;BME280;6334;48.696;2.114;2023-05-02T10:59:30;100779.30;;;17.08;59.60
12536;BME280;6334;48.696;2.114;2023-05-02T11:02:00;100780.78;;;16.94;60.51
12536;BME280;6334;48.696;2.114;2023-05-02T11:07:25;100783.39;;;16.84;56.88
12536;BME280;6334;48.696;2.114;2023-05-02T11:12:49;100776.50;;;16.93;55.46
12536;BME280;6334;48.696;2.114;2023-05-02T11:17:59;100771.27;;;16.67;57.37
12536;BME280;6334;48.696;2.114;2023-05-02T11:20:29;100767.86;;;16.99;55.44
12536;BME280;6334;48.696;2.114;2023-05-02T11:25:48;100775.63;;;17.29;53.52
12536;BME280;6334;48.696;2.114;2023-05-02T11:31:51;100769.90;;;16.68;51.04
12536;BME280;6334;48.696;2.114;2023-05-02T11:33:39;100779.17;;;16.53;55.35
12536;BME280;6334;48.696;2.114;2023-05-02T11:36:09;100768.41;;;16.79;52.81
12536;BME280;6334;48.696;2.114;2023-05-02T11:38:40;100769.29;;;16.69;57.34
12536;BME280;6334;48.696;2.114;2023-05-02T11:41:10;100773.64;;;16.49;57.93
12536;BME280;6334;48.696;2.114;2023-05-02T11:43:41;100774.78;;;16.47;57.39
12536;BME280;6334;48.696;2.114;2023-05-02T11:46:11;100777.17;;;16.84;54.30
12536;BME280;6334;48.696;2.114;2023-05-02T11:48:42;100769.18;;;17.28;53.74
12536;BME280;6334;48.696;2.114;2023-05-02T11:51:12;100768.98;;;17.49;52.63
12536;BME280;6334;48.696;2.114;2023-05-02T11:53:43;100777.31;;;17.59;52.48
12536;BME280;6334;48.696;2.114;2023-05-02T11:56:13;100748.87;;;17.08;52.36
12536;BME280;6334;48.696;2.114;2023-05-02T11:58:43;100776.80;;;17.38;51.80
12536;BME280;6334;48.696;2.114;2023-05-02T12:01:14;100778.48;;;17.44;50.58
12536;BME280;6334;48.696;2.114;2023-05-02T12:03:45;100774.19;;;17.59;53.00
12536;BME280;6334;48.696;2.114;2023-05-02T12:06:15;100779.94;;;18.04;51.91
12536;BME280;6334;48.696;2.114;2023-05-02T12:08:46;100780.98;;;17.88;55.38
12536;BME280;6334;48.696;2.114;2023-05-02T12:11:16;100786.37;;;17.23;53.02
12536;BME280;6334;48.696;2.114;2023-05-02T12:13:47;100765.55;;;17.00;55.26
12536;BME280;6334;48.696;2.114;2023-05-02T12:16:17;100791.88;;;17.41;55.59
12536;BME280;6334;48.696;2.114;2023-05-02T12:18:48;100796.20;;;17.57;54.07
12536;BME280;6334;48.696;2.114;2023-05-02T12:21:17;100799.75;;;17.80;53.47
12536;BME280;6334;48.696;2.114;2023-05-02T12:23:48;100799.14;;;18.06;51.96
12536;BME280;6334;48.696;2.114;2023-05-02T12:26:24;100798.63;;;18.18;52.09
12536;BME280;6334;48.696;2.114;2023-05-02T12:28:54;100802.85;;;18.09;54.84
12536;BME280;6334;48.696;2.114;2023-05-02T12:31:25;100804.83;;;18.35;55.15
12536;BME280;6334;48.696;2.114;2023-05-02T12:33:56;100807.35;;;18.24;53.46
12536;BME280;6334;48.696;2.114;2023-05-02T12:36:26;100811.84;;;18.20;55.29
12536;BME280;6334;48.696;2.114;2023-05-02T12:38:57;100818.70;;;18.28;54.48
12536;BME280;6334;48.696;2.114;2023-05-02T12:41:34;100820.67;;;18.27;53.46
12536;BME280;6334;48.696;2.114;2023-05-02T12:44:05;100819.14;;;17.55;52.36
12536;BME280;6334;48.696;2.114;2023-05-02T12:46:35;100818.42;;;17.77;53.97
12536;BME280;6334;48.696;2.114;2023-05-02T12:49:07;100823.75;;;18.00;54.27
12536;BME280;6334;48.696;2.114;2023-05-02T12:51:38;100823.36;;;17.75;54.93
12536;BME280;6334;48.696;2.114;2023-05-02T12:56:43;100830.63;;;18.04;52.68
12536;BME280;6334;48.696;2.114;2023-05-02T12:59:29;100825.81;;;18.04;52.94
12536;BME280;6334;48.696;2.114;2023-05-02T13:01:58;100832.43;;;18.11;53.19
12536;BME280;6334;48.696;2.114;2023-05-02T13:04:37;100830.88;;;18.26;53.12
12536;BME280;6334;48.696;2.114;2023-05-02T13:07:09;100836.64;;;18.33;54.58
12536;BME280;6334;48.696;2.114;2023-05-02T13:09:39;100838.29;;;18.15;53.51
12536;BME280;6334;48.696;2.114;2023-05-02T13:12:10;100835.16;;;18.51;52.44
12536;BME280;6334;48.696;2.114;2023-05-02T13:14:40;100801.25;;;18.28;52.35
12536;BME280;6334;48.696;2.114;2023-05-02T13:17:11;100825.10;;;18.28;52.99
12536;BME280;6334;48.696;2.114;2023-05-02T13:19:41;100842.77;;;17.68;54.41
12536;BME280;6334;48.696;2.114;2023-05-02T13:22:11;100840.17;;;17.30;53.13
12536;BME280;6334;48.696;2.114;2023-05-02T13:27:16;100828.10;;;18.34;54.76
12536;BME280;6334;48.696;2.114;2023-05-02T13:29:50;100828.85;;;18.12;53.94
12536;BME280;6334;48.696;2.114;2023-05-02T13:32:16;100837.05;;;18.33;53.42
12536;BME280;6334;48.696;2.114;2023-05-02T13:34:47;100839.22;;;18.50;53.38
12536;BME280;6334;48.696;2.114;2023-05-02T13:37:16;100817.20;;;17.97;53.40
12536;BME280;6334;48.696;2.114;2023-05-02T13:39:48;100833.77;;;17.70;54.37
12536;BME280;6334;48.696;2.114;2023-05-02T13:42:18;100840.65;;;17.53;55.79
12536;BME280;6334;48.696;2.114;2023-05-02T13:44:48;100843.41;;;17.45;56.33
12536;BME280;6334;48.696;2.114;2023-05-02T13:47:20;100840.42;;;17.89;54.00
12536;BME280;6334;48.696;2.114;2023-05-02T13:49:50;100840.84;;;18.28;52.81
12536;BME280;6334;48.696;2.114;2023-05-02T13:52:22;100843.98;;;17.61;54.30
12536;BME280;6334;48.696;2.114;2023-05-02T13:54:52;100848.05;;;17.59;55.23
12536;BME280;6334;48.696;2.114;2023-05-02T13:57:22;100847.13;;;17.31;56.71
12536;BME280;6334;48.696;2.114;2023-05-02T13:59:54;100844.25;;;17.32;56.93
12536;BME280;6334;48.696;2.114;2023-05-02T14:02:25;100839.47;;;17.87;53.88
12536;BME280;6334;48.696;2.114;2023-05-02T14:04:54;100835.27;;;18.09;54.21
12536;BME280;6334;48.696;2.114;2023-05-02T14:07:25;100835.44;;;18.18;54.62
12536;BME280;6334;48.696;2.114;2023-05-02T14:09:55;100838.91;;;17.89;55.28
12536;BME280;6334;48.696;2.114;2023-05-02T14:12:26;100839.16;;;17.88;54.27
12536;BME280;6334;48.696;2.114;2023-05-02T14:14:56;100814.52;;;18.02;53.78